sensor_id;sensor_type;location;lat;lon;timestamp;temperature;humidity
37158;DHT22;23050;51.776;22.638;2024-03-07T00:01:05;-1.30;99.90
37158;DHT22;23050;51.776;22.638;2024-03-07T00:03:33;-1.30;99.90
37158;DHT22;23050;51.776;22.638;2024-03-07T00:05:58;-1.30;99.90
37158;DHT22;23050;51.776;22.638;2024-03-07T00:08:24;-1.30;99.90
37158;DHT22;23050;51.776;22.638;2024-03-07T00:10:49;-1.30;99.90
37158;DHT22;23050;51.776;22.638;2024-03-07T00:13:15;-1.20;99.90
37158;DHT22;23050;51.776;22.638;2024-03-07T00:15:41;-1.10;99.90
37158;DHT22;23050;51.776;22.638;2024-03-07T00:18:07;-1.10;99.90
37158;DHT22;23050;51.776;22.638;2024-03-07T00:20:32;-1.10;99.90
37158;DHT22;23050;51.776;22.638;2024-03-07T00:22:58;-1.00;99.90
37158;DHT22;23050;51.776;22.638;2024-03-07T00:25:24;-0.90;99.90
37158;DHT22;23050;51.776;22.638;2024-03-07T00:27:49;-0.90;99.90
37158;DHT22;23050;51.776;22.638;2024-03-07T00:30:18;-0.80;99.90
37158;DHT22;23050;51.776;22.638;2024-03-07T00:32:46;-0.80;99.90
37158;DHT22;23050;51.776;22.638;2024-03-07T00:35:12;-0.70;99.90
37158;DHT22;23050;51.776;22.638;2024-03-07T00:37:38;-0.70;99.90
37158;DHT22;23050;51.776;22.638;2024-03-07T00:40:04;-0.70;99.90
37158;DHT22;23050;51.776;22.638;2024-03-07T00:42:30;-0.70;99.90
37158;DHT22;23050;51.776;22.638;2024-03-07T00:44:56;-0.60;99.90
37158;DHT22;23050;51.776;22.638;2024-03-07T00:47:21;-0.60;99.90
37158;DHT22;23050;51.776;22.638;2024-03-07T00:49:47;-0.60;99.90
37158;DHT22;23050;51.776;22.638;2024-03-07T00:52:13;-0.60;99.90
37158;DHT22;23050;51.776;22.638;2024-03-07T00:54:39;-0.60;99.90
37158;DHT22;23050;51.776;22.638;2024-03-07T00:57:05;-0.70;99.90
37158;DHT22;23050;51.776;22.638;2024-03-07T00:59:30;-0.70;99.90
37158;DHT22;23050;51.776;22.638;2024-03-07T01:01:56;-0.70;99.90
37158;DHT22;23050;51.776;22.638;2024-03-07T01:04:22;-0.70;99.90
37158;DHT22;23050;51.776;22.638;2024-03-07T01:06:47;-0.80;99.90
37158;DHT22;23050;51.776;22.638;2024-03-07T01:09:13;-0.80;99.90
37158;DHT22;23050;51.776;22.638;2024-03-07T01:11:43;-0.90;99.90
37158;DHT22;23050;51.776;22.638;2024-03-07T01:14:10;-0.90;99.90
37158;DHT22;23050;51.776;22.638;2024-03-07T01:16:36;-0.90;99.90
37158;DHT22;23050;51.776;22.638;2024-03-07T01:19:02;-1.00;99.90
37158;DHT22;23050;51.776;22.638;2024-03-07T01:21:28;-1.00;99.90
37158;DHT22;23050;51.776;22.638;2024-03-07T01:23:54;-1.00;99.90
37158;DHT22;23050;51.776;22.638;2024-03-07T01:26:20;-1.00;99.90
37158;DHT22;23050;51.776;22.638;2024-03-07T01:28:45;-1.00;99.90
37158;DHT22;23050;51.776;22.638;2024-03-07T01:31:11;-1.00;99.90
37158;DHT22;23050;51.776;22.638;2024-03-07T01:33:37;-1.00;99.90
37158;DHT22;23050;51.776;22.638;2024-03-07T01:36:03;-1.10;99.90
37158;DHT22;23050;51.776;22.638;2024-03-07T01:38:30;-1.10;99.90
37158;DHT22;23050;51.776;22.638;2024-03-07T01:40:56;-1.10;99.90
37158;DHT22;23050;51.776;22.638;2024-03-07T01:43:21;-1.10;99.90
37158;DHT22;23050;51.776;22.638;2024-03-07T01:45:47;-1.00;99.90
37158;DHT22;23050;51.776;22.638;2024-03-07T01:48:23;-1.00;99.90
37158;DHT22;23050;51.776;22.638;2024-03-07T01:50:50;-1.00;99.90
37158;DHT22;23050;51.776;22.638;2024-03-07T01:53:16;-1.00;99.90
37158;DHT22;23050;51.776;22.638;2024-03-07T01:55:42;-1.10;99.90
37158;DHT22;23050;51.776;22.638;2024-03-07T01:58:11;-1.10;99.90
37158;DHT22;23050;51.776;22.638;2024-03-07T02:00:39;-1.10;99.90
37158;DHT22;23050;51.776;22.638;2024-03-07T02:03:05;-1.10;99.90
37158;DHT22;23050;51.776;22.638;2024-03-07T02:05:33;-1.10;99.90
37158;DHT22;23050;51.776;22.638;2024-03-07T02:07:59;-1.10;99.90
37158;DHT22;23050;51.776;22.638;2024-03-07T02:10:24;-1.10;99.90
37158;DHT22;23050;51.776;22.638;2024-03-07T02:12:50;-1.10;99.90
37158;DHT22;23050;51.776;22.638;2024-03-07T02:15:16;-1.10;99.90
37158;DHT22;23050;51.776;22.638;2024-03-07T02:17:42;-1.10;99.90
37158;DHT22;23050;51.776;22.638;2024-03-07T02:20:08;-1.10;99.90
37158;DHT22;23050;51.776;22.638;2024-03-07T02:22:36;-1.10;99.90
37158;DHT22;23050;51.776;22.638;2024-03-07T02:25:02;-1.10;99.90
37158;DHT22;23050;51.776;22.638;2024-03-07T02:27:28;-1.10;99.90
37158;DHT22;23050;51.776;22.638;2024-03-07T02:29:54;-1.20;99.90
37158;DHT22;23050;51.776;22.638;2024-03-07T02:32:19;-1.20;99.90
37158;DHT22;23050;51.776;22.638;2024-03-07T02:34:45;-1.20;99.90
37158;DHT22;23050;51.776;22.638;2024-03-07T02:37:12;-1.20;99.90
37158;DHT22;23050;51.776;22.638;2024-03-07T02:39:38;-1.20;99.90
37158;DHT22;23050;51.776;22.638;2024-03-07T02:42:04;-1.30;99.90
37158;DHT22;23050;51.776;22.638;2024-03-07T02:44:30;-1.30;99.90
37158;DHT22;23050;51.776;22.638;2024-03-07T02:46:57;-1.30;99.90
37158;DHT22;23050;51.776;22.638;2024-03-07T02:49:23;-1.30;99.90
37158;DHT22;23050;51.776;22.638;2024-03-07T02:51:49;-1.40;99.90
37158;DHT22;23050;51.776;22.638;2024-03-07T02:54:15;-1.40;99.90
37158;DHT22;23050;51.776;22.638;2024-03-07T02:56:41;-1.40;99.90
37158;DHT22;23050;51.776;22.638;2024-03-07T02:59:07;-1.40;99.90
37158;DHT22;23050;51.776;22.638;2024-03-07T03:01:33;-1.40;99.90
37158;DHT22;23050;51.776;22.638;2024-03-07T03:03:59;-1.50;99.90
37158;DHT22;23050;51.776;22.638;2024-03-07T03:06:24;-1.50;99.90
37158;DHT22;23050;51.776;22.638;2024-03-07T03:08:50;-1.50;99.90
37158;DHT22;23050;51.776;22.638;2024-03-07T03:11:16;-1.60;99.90
37158;DHT22;23050;51.776;22.638;2024-03-07T03:13:42;-1.60;99.90
37158;DHT22;23050;51.776;22.638;2024-03-07T03:16:08;-1.60;99.90
37158;DHT22;23050;51.776;22.638;2024-03-07T03:18:35;-1.60;99.90
37158;DHT22;23050;51.776;22.638;2024-03-07T03:21:01;-1.50;99.90
37158;DHT22;23050;51.776;22.638;2024-03-07T03:23:28;-1.50;99.90
37158;DHT22;23050;51.776;22.638;2024-03-07T03:25:54;-1.40;99.90
37158;DHT22;23050;51.776;22.638;2024-03-07T03:28:21;-1.40;99.90
37158;DHT22;23050;51.776;22.638;2024-03-07T03:30:47;-1.40;99.90
37158;DHT22;23050;51.776;22.638;2024-03-07T03:33:13;-1.40;99.90
37158;DHT22;23050;51.776;22.638;2024-03-07T03:35:39;-1.30;99.90
37158;DHT22;23050;51.776;22.638;2024-03-07T03:38:05;-1.30;99.90
37158;DHT22;23050;51.776;22.638;2024-03-07T03:40:32;-1.20;99.90
37158;DHT22;23050;51.776;22.638;2024-03-07T03:42:58;-1.10;99.90
37158;DHT22;23050;51.776;22.638;2024-03-07T03:45:24;-1.10;99.90
37158;DHT22;23050;51.776;22.638;2024-03-07T03:47:51;-1.00;99.90
37158;DHT22;23050;51.776;22.638;2024-03-07T03:50:16;-1.00;99.90
37158;DHT22;23050;51.776;22.638;2024-03-07T03:52:43;-0.90;99.90
37158;DHT22;23050;51.776;22.638;2024-03-07T03:55:09;-0.90;99.90
37158;DHT22;23050;51.776;22.638;2024-03-07T03:57:36;-0.80;99.90
37158;DHT22;23050;51.776;22.638;2024-03-07T04:00:05;-0.80;99.90
37158;DHT22;23050;51.776;22.638;2024-03-07T04:02:35;-0.80;99.90
37158;DHT22;23050;51.776;22.638;2024-03-07T04:05:02;-0.80;99.90
37158;DHT22;23050;51.776;22.638;2024-03-07T04:07:29;-0.80;99.90
37158;DHT22;23050;51.776;22.638;2024-03-07T04:09:56;-0.80;99.90
37158;DHT22;23050;51.776;22.638;2024-03-07T04:12:23;-0.80;99.90
37158;DHT22;23050;51.776;22.638;2024-03-07T04:14:52;-0.80;99.90
37158;DHT22;23050;51.776;22.638;2024-03-07T04:17:20;-0.80;99.90
37158;DHT22;23050;51.776;22.638;2024-03-07T04:19:46;-0.80;99.90
37158;DHT22;23050;51.776;22.638;2024-03-07T04:22:12;-0.80;99.90
37158;DHT22;23050;51.776;22.638;2024-03-07T04:24:37;-0.90;99.90
37158;DHT22;23050;51.776;22.638;2024-03-07T04:27:04;-0.90;99.90
37158;DHT22;23050;51.776;22.638;2024-03-07T04:29:33;-0.90;99.90
37158;DHT22;23050;51.776;22.638;2024-03-07T04:32:00;-0.90;99.90
37158;DHT22;23050;51.776;22.638;2024-03-07T04:34:30;-0.80;99.90
37158;DHT22;23050;51.776;22.638;2024-03-07T04:36:59;-0.80;99.90
37158;DHT22;23050;51.776;22.638;2024-03-07T04:39:27;-0.80;99.90
37158;DHT22;23050;51.776;22.638;2024-03-07T04:42:02;-0.80;99.90
37158;DHT22;23050;51.776;22.638;2024-03-07T04:44:35;-0.80;99.90
37158;DHT22;23050;51.776;22.638;2024-03-07T04:47:02;-0.80;99.90
37158;DHT22;23050;51.776;22.638;2024-03-07T04:49:29;-0.80;99.90
37158;DHT22;23050;51.776;22.638;2024-03-07T04:51:57;-0.80;99.90
37158;DHT22;23050;51.776;22.638;2024-03-07T04:54:23;-0.80;99.90
37158;DHT22;23050;51.776;22.638;2024-03-07T04:56:50;-0.80;99.90
37158;DHT22;23050;51.776;22.638;2024-03-07T04:59:17;-0.80;99.90
37158;DHT22;23050;51.776;22.638;2024-03-07T05:01:44;-0.80;99.90
37158;DHT22;23050;51.776;22.638;2024-03-07T05:04:10;-0.80;99.90
37158;DHT22;23050;51.776;22.638;2024-03-07T05:06:37;-0.80;99.90
37158;DHT22;23050;51.776;22.638;2024-03-07T05:09:04;-0.80;99.90
37158;DHT22;23050;51.776;22.638;2024-03-07T05:11:30;-0.80;99.90
37158;DHT22;23050;51.776;22.638;2024-03-07T05:13:57;-0.80;99.90
37158;DHT22;23050;51.776;22.638;2024-03-07T05:16:26;-0.80;99.90
37158;DHT22;23050;51.776;22.638;2024-03-07T05:18:52;-0.80;99.90
37158;DHT22;23050;51.776;22.638;2024-03-07T05:21:18;-0.70;99.90
37158;DHT22;23050;51.776;22.638;2024-03-07T05:24:00;-0.80;99.90
37158;DHT22;23050;51.776;22.638;2024-03-07T05:26:26;-0.70;99.90
37158;DHT22;23050;51.776;22.638;2024-03-07T05:28:52;-0.70;99.90
37158;DHT22;23050;51.776;22.638;2024-03-07T05:31:20;-0.70;99.90
37158;DHT22;23050;51.776;22.638;2024-03-07T05:33:46;-0.70;99.90
37158;DHT22;23050;51.776;22.638;2024-03-07T05:36:12;-0.60;99.90
37158;DHT22;23050;51.776;22.638;2024-03-07T05:38:44;-0.50;99.90
37158;DHT22;23050;51.776;22.638;2024-03-07T05:41:11;-0.50;99.90
37158;DHT22;23050;51.776;22.638;2024-03-07T05:43:38;-0.50;99.90
37158;DHT22;23050;51.776;22.638;2024-03-07T05:46:03;-0.40;99.90
37158;DHT22;23050;51.776;22.638;2024-03-07T05:48:30;-0.40;99.90
37158;DHT22;23050;51.776;22.638;2024-03-07T05:50:57;-0.40;99.90
37158;DHT22;23050;51.776;22.638;2024-03-07T05:53:23;-0.30;99.90
37158;DHT22;23050;51.776;22.638;2024-03-07T05:55:48;-0.30;99.90
37158;DHT22;23050;51.776;22.638;2024-03-07T05:58:14;-0.30;99.90
37158;DHT22;23050;51.776;22.638;2024-03-07T06:00:39;-0.20;99.90
37158;DHT22;23050;51.776;22.638;2024-03-07T06:03:05;-0.20;99.90
37158;DHT22;23050;51.776;22.638;2024-03-07T06:05:31;-0.10;99.90
37158;DHT22;23050;51.776;22.638;2024-03-07T06:07:57;0.00;99.90
37158;DHT22;23050;51.776;22.638;2024-03-07T06:10:23;0.00;99.90
37158;DHT22;23050;51.776;22.638;2024-03-07T06:12:53;0.10;99.90
37158;DHT22;23050;51.776;22.638;2024-03-07T06:15:18;0.10;99.90
37158;DHT22;23050;51.776;22.638;2024-03-07T06:17:44;0.20;99.90
37158;DHT22;23050;51.776;22.638;2024-03-07T06:20:12;0.20;99.90
37158;DHT22;23050;51.776;22.638;2024-03-07T06:22:48;0.20;99.90
37158;DHT22;23050;51.776;22.638;2024-03-07T06:25:17;0.30;99.90
37158;DHT22;23050;51.776;22.638;2024-03-07T06:27:46;0.30;99.90
37158;DHT22;23050;51.776;22.638;2024-03-07T06:30:15;0.30;99.90
37158;DHT22;23050;51.776;22.638;2024-03-07T06:32:44;0.40;99.90
37158;DHT22;23050;51.776;22.638;2024-03-07T06:35:09;0.40;99.90
37158;DHT22;23050;51.776;22.638;2024-03-07T06:37:35;0.50;99.90
37158;DHT22;23050;51.776;22.638;2024-03-07T06:40:02;0.50;99.90
37158;DHT22;23050;51.776;22.638;2024-03-07T06:42:34;0.60;99.90
37158;DHT22;23050;51.776;22.638;2024-03-07T06:45:02;0.60;99.90
37158;DHT22;23050;51.776;22.638;2024-03-07T06:47:28;0.70;99.90
37158;DHT22;23050;51.776;22.638;2024-03-07T06:49:54;0.70;99.90
37158;DHT22;23050;51.776;22.638;2024-03-07T06:52:21;0.60;99.90
37158;DHT22;23050;51.776;22.638;2024-03-07T06:54:47;0.60;99.90
37158;DHT22;23050;51.776;22.638;2024-03-07T06:57:12;0.70;99.90
37158;DHT22;23050;51.776;22.638;2024-03-07T06:59:38;0.80;99.90
37158;DHT22;23050;51.776;22.638;2024-03-07T07:02:04;0.70;99.90
37158;DHT22;23050;51.776;22.638;2024-03-07T07:04:29;0.80;99.90
37158;DHT22;23050;51.776;22.638;2024-03-07T07:07:07;0.80;99.90
37158;DHT22;23050;51.776;22.638;2024-03-07T07:09:35;0.90;99.90
37158;DHT22;23050;51.776;22.638;2024-03-07T07:12:00;1.00;99.90
37158;DHT22;23050;51.776;22.638;2024-03-07T07:14:29;2.00;99.90
37158;DHT22;23050;51.776;22.638;2024-03-07T07:16:54;3.80;99.90
37158;DHT22;23050;51.776;22.638;2024-03-07T07:19:21;5.40;99.90
37158;DHT22;23050;51.776;22.638;2024-03-07T07:21:47;6.90;93.00
37158;DHT22;23050;51.776;22.638;2024-03-07T07:24:15;8.00;12.60
37158;DHT22;23050;51.776;22.638;2024-03-07T07:26:41;8.00;1.00
37158;DHT22;23050;51.776;22.638;2024-03-07T07:29:07;7.40;1.00
37158;DHT22;23050;51.776;22.638;2024-03-07T07:31:32;6.40;1.00
37158;DHT22;23050;51.776;22.638;2024-03-07T07:33:58;5.40;1.00
37158;DHT22;23050;51.776;22.638;2024-03-07T07:36:24;4.90;1.00
37158;DHT22;23050;51.776;22.638;2024-03-07T07:38:49;4.40;1.00
37158;DHT22;23050;51.776;22.638;2024-03-07T07:41:15;4.10;1.00
37158;DHT22;23050;51.776;22.638;2024-03-07T07:43:40;3.70;1.00
37158;DHT22;23050;51.776;22.638;2024-03-07T07:46:06;3.50;18.70
37158;DHT22;23050;51.776;22.638;2024-03-07T07:48:32;3.20;34.80
37158;DHT22;23050;51.776;22.638;2024-03-07T07:50:58;3.00;42.80
37158;DHT22;23050;51.776;22.638;2024-03-07T07:53:24;2.70;58.80
37158;DHT22;23050;51.776;22.638;2024-03-07T07:55:50;2.60;78.30
37158;DHT22;23050;51.776;22.638;2024-03-07T07:58:16;2.50;90.00
37158;DHT22;23050;51.776;22.638;2024-03-07T08:00:42;2.60;92.40
37158;DHT22;23050;51.776;22.638;2024-03-07T08:03:10;2.60;92.50
37158;DHT22;23050;51.776;22.638;2024-03-07T08:05:37;2.70;92.10
37158;DHT22;23050;51.776;22.638;2024-03-07T08:08:05;2.70;92.10
37158;DHT22;23050;51.776;22.638;2024-03-07T08:10:32;2.80;91.30
37158;DHT22;23050;51.776;22.638;2024-03-07T08:12:59;2.90;90.90
37158;DHT22;23050;51.776;22.638;2024-03-07T08:15:29;2.90;83.30
37158;DHT22;23050;51.776;22.638;2024-03-07T08:17:55;2.90;80.10
37158;DHT22;23050;51.776;22.638;2024-03-07T08:20:22;2.90;77.40
37158;DHT22;23050;51.776;22.638;2024-03-07T08:22:49;2.70;62.10
37158;DHT22;23050;51.776;22.638;2024-03-07T08:25:24;2.50;61.70
37158;DHT22;23050;51.776;22.638;2024-03-07T08:27:52;2.50;52.20
37158;DHT22;23050;51.776;22.638;2024-03-07T08:30:18;2.50;48.00
37158;DHT22;23050;51.776;22.638;2024-03-07T08:32:44;2.40;49.50
37158;DHT22;23050;51.776;22.638;2024-03-07T08:35:10;2.40;43.40
37158;DHT22;23050;51.776;22.638;2024-03-07T08:37:38;2.50;40.60
37158;DHT22;23050;51.776;22.638;2024-03-07T08:40:04;2.80;23.60
37158;DHT22;23050;51.776;22.638;2024-03-07T08:42:35;2.70;1.00
37158;DHT22;23050;51.776;22.638;2024-03-07T08:45:02;2.60;15.50
37158;DHT22;23050;51.776;22.638;2024-03-07T08:47:32;2.50;6.20
37158;DHT22;23050;51.776;22.638;2024-03-07T08:49:58;3.60;1.00
37158;DHT22;23050;51.776;22.638;2024-03-07T08:52:24;5.30;1.00
37158;DHT22;23050;51.776;22.638;2024-03-07T08:54:50;6.40;1.00
37158;DHT22;23050;51.776;22.638;2024-03-07T08:57:16;6.80;1.00
37158;DHT22;23050;51.776;22.638;2024-03-07T08:59:45;6.70;1.00
37158;DHT22;23050;51.776;22.638;2024-03-07T09:02:11;7.60;1.00
37158;DHT22;23050;51.776;22.638;2024-03-07T09:04:37;8.80;1.00
37158;DHT22;23050;51.776;22.638;2024-03-07T09:07:04;9.50;99.90
37158;DHT22;23050;51.776;22.638;2024-03-07T09:09:31;10.00;99.90
37158;DHT22;23050;51.776;22.638;2024-03-07T09:11:57;10.00;99.90
37158;DHT22;23050;51.776;22.638;2024-03-07T09:14:23;10.40;99.90
37158;DHT22;23050;51.776;22.638;2024-03-07T09:16:49;10.70;99.90
37158;DHT22;23050;51.776;22.638;2024-03-07T09:19:15;11.30;99.90
37158;DHT22;23050;51.776;22.638;2024-03-07T09:21:48;12.20;99.90
37158;DHT22;23050;51.776;22.638;2024-03-07T09:24:15;12.90;99.90
37158;DHT22;23050;51.776;22.638;2024-03-07T09:26:40;12.40;99.90
37158;DHT22;23050;51.776;22.638;2024-03-07T09:29:06;10.50;99.90
37158;DHT22;23050;51.776;22.638;2024-03-07T09:31:35;9.30;99.90
37158;DHT22;23050;51.776;22.638;2024-03-07T09:34:00;8.10;99.90
37158;DHT22;23050;51.776;22.638;2024-03-07T09:36:26;7.90;99.90
37158;DHT22;23050;51.776;22.638;2024-03-07T09:38:52;7.60;99.90
37158;DHT22;23050;51.776;22.638;2024-03-07T09:41:19;8.00;99.90
37158;DHT22;23050;51.776;22.638;2024-03-07T09:43:48;8.10;99.90
37158;DHT22;23050;51.776;22.638;2024-03-07T09:46:18;8.00;99.90
37158;DHT22;23050;51.776;22.638;2024-03-07T09:48:44;7.60;99.90
37158;DHT22;23050;51.776;22.638;2024-03-07T09:51:10;6.90;99.90
37158;DHT22;23050;51.776;22.638;2024-03-07T09:53:37;6.70;99.90
37158;DHT22;23050;51.776;22.638;2024-03-07T09:56:04;6.30;99.90
37158;DHT22;23050;51.776;22.638;2024-03-07T09:58:32;5.90;99.90
37158;DHT22;23050;51.776;22.638;2024-03-07T10:01:00;5.90;99.90
37158;DHT22;23050;51.776;22.638;2024-03-07T10:03:29;5.70;1.00
37158;DHT22;23050;51.776;22.638;2024-03-07T10:05:55;5.80;1.00
37158;DHT22;23050;51.776;22.638;2024-03-07T10:08:22;5.70;1.00
37158;DHT22;23050;51.776;22.638;2024-03-07T10:10:50;6.10;1.00
37158;DHT22;23050;51.776;22.638;2024-03-07T10:13:15;6.40;1.00
37158;DHT22;23050;51.776;22.638;2024-03-07T10:15:43;7.50;1.00
37158;DHT22;23050;51.776;22.638;2024-03-07T10:18:09;8.10;99.90
37158;DHT22;23050;51.776;22.638;2024-03-07T10:20:36;8.00;99.90
37158;DHT22;23050;51.776;22.638;2024-03-07T10:23:03;8.00;99.90
37158;DHT22;23050;51.776;22.638;2024-03-07T10:25:29;8.00;99.90
37158;DHT22;23050;51.776;22.638;2024-03-07T10:27:55;8.60;99.90
37158;DHT22;23050;51.776;22.638;2024-03-07T10:30:21;8.90;99.90
37158;DHT22;23050;51.776;22.638;2024-03-07T10:32:58;8.70;99.90
37158;DHT22;23050;51.776;22.638;2024-03-07T10:35:27;8.70;99.90
37158;DHT22;23050;51.776;22.638;2024-03-07T10:37:54;8.70;99.90
37158;DHT22;23050;51.776;22.638;2024-03-07T10:40:21;8.70;99.90
37158;DHT22;23050;51.776;22.638;2024-03-07T10:42:48;8.40;99.90
37158;DHT22;23050;51.776;22.638;2024-03-07T10:45:21;9.00;99.90
37158;DHT22;23050;51.776;22.638;2024-03-07T10:47:56;9.60;99.90
37158;DHT22;23050;51.776;22.638;2024-03-07T10:50:54;10.00;99.90
37158;DHT22;23050;51.776;22.638;2024-03-07T11:01:20;10.10;99.90
37158;DHT22;23050;51.776;22.638;2024-03-07T11:03:49;10.50;99.90
37158;DHT22;23050;51.776;22.638;2024-03-07T11:06:18;10.80;99.90
37158;DHT22;23050;51.776;22.638;2024-03-07T11:08:44;10.70;99.90
37158;DHT22;23050;51.776;22.638;2024-03-07T11:11:11;10.60;99.90
37158;DHT22;23050;51.776;22.638;2024-03-07T11:13:39;10.70;99.90
37158;DHT22;23050;51.776;22.638;2024-03-07T11:16:06;10.70;99.90
37158;DHT22;23050;51.776;22.638;2024-03-07T11:18:32;10.70;99.90
37158;DHT22;23050;51.776;22.638;2024-03-07T11:20:58;9.90;99.90
37158;DHT22;23050;51.776;22.638;2024-03-07T11:23:27;9.70;99.90
37158;DHT22;23050;51.776;22.638;2024-03-07T11:26:11;10.00;99.90
37158;DHT22;23050;51.776;22.638;2024-03-07T11:28:40;10.40;99.90
37158;DHT22;23050;51.776;22.638;2024-03-07T11:31:26;10.50;99.90
37158;DHT22;23050;51.776;22.638;2024-03-07T11:34:15;10.60;99.90
37158;DHT22;23050;51.776;22.638;2024-03-07T11:36:45;10.90;99.90
37158;DHT22;23050;51.776;22.638;2024-03-07T11:39:39;11.00;99.90
37158;DHT22;23050;51.776;22.638;2024-03-07T11:42:05;10.90;99.90
37158;DHT22;23050;51.776;22.638;2024-03-07T11:44:32;10.70;99.90
37158;DHT22;23050;51.776;22.638;2024-03-07T11:47:01;10.50;99.90
37158;DHT22;23050;51.776;22.638;2024-03-07T11:49:35;10.40;99.90
37158;DHT22;23050;51.776;22.638;2024-03-07T11:52:02;10.30;99.90
37158;DHT22;23050;51.776;22.638;2024-03-07T11:54:30;10.10;99.90
37158;DHT22;23050;51.776;22.638;2024-03-07T11:56:56;10.20;99.90
37158;DHT22;23050;51.776;22.638;2024-03-07T11:59:23;10.10;99.90
37158;DHT22;23050;51.776;22.638;2024-03-07T12:01:49;9.90;99.90
37158;DHT22;23050;51.776;22.638;2024-03-07T12:04:15;9.80;99.90
37158;DHT22;23050;51.776;22.638;2024-03-07T12:06:52;9.90;99.90
37158;DHT22;23050;51.776;22.638;2024-03-07T12:09:18;9.70;99.90
37158;DHT22;23050;51.776;22.638;2024-03-07T12:11:50;9.70;99.90
37158;DHT22;23050;51.776;22.638;2024-03-07T12:14:19;9.40;99.90
37158;DHT22;23050;51.776;22.638;2024-03-07T12:16:45;9.70;99.90
37158;DHT22;23050;51.776;22.638;2024-03-07T12:19:11;10.00;99.90
37158;DHT22;23050;51.776;22.638;2024-03-07T12:21:37;10.50;99.90
37158;DHT22;23050;51.776;22.638;2024-03-07T12:24:14;10.80;99.90
37158;DHT22;23050;51.776;22.638;2024-03-07T12:26:41;11.20;99.90
37158;DHT22;23050;51.776;22.638;2024-03-07T12:29:11;11.20;99.90
37158;DHT22;23050;51.776;22.638;2024-03-07T12:31:41;10.90;99.90
37158;DHT22;23050;51.776;22.638;2024-03-07T12:34:08;10.40;99.90
37158;DHT22;23050;51.776;22.638;2024-03-07T12:36:37;9.70;99.90
37158;DHT22;23050;51.776;22.638;2024-03-07T12:39:23;9.40;99.90
37158;DHT22;23050;51.776;22.638;2024-03-07T12:41:56;9.30;99.90
37158;DHT22;23050;51.776;22.638;2024-03-07T12:44:22;9.50;99.90
37158;DHT22;23050;51.776;22.638;2024-03-07T12:46:48;9.90;99.90
37158;DHT22;23050;51.776;22.638;2024-03-07T12:49:16;10.00;99.90
37158;DHT22;23050;51.776;22.638;2024-03-07T12:51:42;9.70;99.90
37158;DHT22;23050;51.776;22.638;2024-03-07T12:54:08;9.60;99.90
37158;DHT22;23050;51.776;22.638;2024-03-07T12:56:37;9.70;99.90
37158;DHT22;23050;51.776;22.638;2024-03-07T12:59:03;9.70;99.90
37158;DHT22;23050;51.776;22.638;2024-03-07T13:01:30;10.10;99.90
37158;DHT22;23050;51.776;22.638;2024-03-07T13:03:58;10.50;99.90
37158;DHT22;23050;51.776;22.638;2024-03-07T13:06:24;11.10;99.90
37158;DHT22;23050;51.776;22.638;2024-03-07T13:08:55;11.50;99.90
37158;DHT22;23050;51.776;22.638;2024-03-07T13:11:23;11.40;99.90
37158;DHT22;23050;51.776;22.638;2024-03-07T13:13:49;11.40;99.90
37158;DHT22;23050;51.776;22.638;2024-03-07T13:16:14;11.70;99.90
37158;DHT22;23050;51.776;22.638;2024-03-07T13:18:40;12.10;99.90
37158;DHT22;23050;51.776;22.638;2024-03-07T13:21:06;12.40;99.90
37158;DHT22;23050;51.776;22.638;2024-03-07T13:23:32;12.40;99.90
37158;DHT22;23050;51.776;22.638;2024-03-07T13:26:01;11.90;99.90
37158;DHT22;23050;51.776;22.638;2024-03-07T13:28:27;12.10;99.90
37158;DHT22;23050;51.776;22.638;2024-03-07T13:30:54;12.30;99.90
37158;DHT22;23050;51.776;22.638;2024-03-07T13:33:20;12.50;99.90
37158;DHT22;23050;51.776;22.638;2024-03-07T13:35:46;12.10;99.90
37158;DHT22;23050;51.776;22.638;2024-03-07T13:38:11;11.60;99.90
37158;DHT22;23050;51.776;22.638;2024-03-07T13:40:39;11.30;99.90
37158;DHT22;23050;51.776;22.638;2024-03-07T13:43:05;11.50;99.90
37158;DHT22;23050;51.776;22.638;2024-03-07T13:45:33;11.70;99.90
37158;DHT22;23050;51.776;22.638;2024-03-07T13:48:06;11.90;99.90
37158;DHT22;23050;51.776;22.638;2024-03-07T13:50:34;11.80;99.90
37158;DHT22;23050;51.776;22.638;2024-03-07T13:53:00;11.90;99.90
37158;DHT22;23050;51.776;22.638;2024-03-07T13:59:17;10.70;99.90
37158;DHT22;23050;51.776;22.638;2024-03-07T14:02:04;10.70;99.90
37158;DHT22;23050;51.776;22.638;2024-03-07T14:14:18;11.80;99.90
37158;DHT22;23050;51.776;22.638;2024-03-07T14:26:02;12.30;99.90
37158;DHT22;23050;51.776;22.638;2024-03-07T14:31:11;11.50;99.90
37158;DHT22;23050;51.776;22.638;2024-03-07T14:37:17;10.70;99.90
37158;DHT22;23050;51.776;22.638;2024-03-07T14:39:49;9.60;99.90
37158;DHT22;23050;51.776;22.638;2024-03-07T14:42:15;9.00;99.90
37158;DHT22;23050;51.776;22.638;2024-03-07T14:44:43;9.60;99.90
37158;DHT22;23050;51.776;22.638;2024-03-07T14:47:11;10.10;99.90
37158;DHT22;23050;51.776;22.638;2024-03-07T14:49:40;10.60;99.90
37158;DHT22;23050;51.776;22.638;2024-03-07T14:52:06;10.80;99.90
37158;DHT22;23050;51.776;22.638;2024-03-07T14:54:37;10.30;99.90
37158;DHT22;23050;51.776;22.638;2024-03-07T14:57:04;9.90;99.90
37158;DHT22;23050;51.776;22.638;2024-03-07T14:59:30;9.70;99.90
37158;DHT22;23050;51.776;22.638;2024-03-07T15:01:56;10.00;99.90
37158;DHT22;23050;51.776;22.638;2024-03-07T15:04:24;10.10;99.90
37158;DHT22;23050;51.776;22.638;2024-03-07T15:06:52;10.00;99.90
37158;DHT22;23050;51.776;22.638;2024-03-07T15:09:18;9.80;99.90
37158;DHT22;23050;51.776;22.638;2024-03-07T15:11:44;9.70;99.90
37158;DHT22;23050;51.776;22.638;2024-03-07T15:14:11;9.70;99.90
37158;DHT22;23050;51.776;22.638;2024-03-07T15:16:37;9.40;99.90
37158;DHT22;23050;51.776;22.638;2024-03-07T15:19:07;9.40;99.90
37158;DHT22;23050;51.776;22.638;2024-03-07T15:21:36;9.60;99.90
37158;DHT22;23050;51.776;22.638;2024-03-07T15:24:06;9.80;99.90
37158;DHT22;23050;51.776;22.638;2024-03-07T15:26:32;10.00;99.90
37158;DHT22;23050;51.776;22.638;2024-03-07T15:28:58;10.00;99.90
37158;DHT22;23050;51.776;22.638;2024-03-07T15:31:26;9.80;99.90
37158;DHT22;23050;51.776;22.638;2024-03-07T15:33:52;9.50;99.90
37158;DHT22;23050;51.776;22.638;2024-03-07T15:36:18;9.30;99.90
37158;DHT22;23050;51.776;22.638;2024-03-07T15:38:47;9.20;99.90
37158;DHT22;23050;51.776;22.638;2024-03-07T15:41:14;9.20;99.90
37158;DHT22;23050;51.776;22.638;2024-03-07T15:43:40;9.20;99.90
37158;DHT22;23050;51.776;22.638;2024-03-07T15:46:13;8.80;99.90
37158;DHT22;23050;51.776;22.638;2024-03-07T15:48:44;8.70;99.90
37158;DHT22;23050;51.776;22.638;2024-03-07T15:51:10;8.30;99.90
37158;DHT22;23050;51.776;22.638;2024-03-07T15:53:37;8.30;99.90
37158;DHT22;23050;51.776;22.638;2024-03-07T15:56:03;8.10;99.90
37158;DHT22;23050;51.776;22.638;2024-03-07T15:58:32;7.80;99.90
37158;DHT22;23050;51.776;22.638;2024-03-07T16:00:59;7.60;99.90